createdAt,value
2019-05-25T00:00:06.531Z,13.34
2019-05-25T00:02:13.193Z,13.29
2019-05-25T00:04:19.677Z,13.21
2019-05-25T00:06:26.054Z,13.15
2019-05-25T00:08:32.922Z,13.11
2019-05-25T00:10:39.528Z,13.04
2019-05-25T00:12:45.943Z,13.04
2019-05-25T00:14:52.310Z,13.08
2019-05-25T00:16:58.672Z,13.13
2019-05-25T00:19:06.589Z,13.17
2019-05-25T00:21:14.352Z,13.13
2019-05-25T00:23:20.834Z,13.15
2019-05-25T00:25:28.934Z,13.16
2019-05-25T00:27:35.193Z,13.17
2019-05-25T00:29:45.556Z,13.24
2019-05-25T00:31:52.122Z,13.24
2019-05-25T00:33:58.879Z,13.25
2019-05-25T00:36:05.557Z,13.34
2019-05-25T00:38:11.926Z,13.38
2019-05-25T00:40:20.647Z,13.35
2019-05-25T00:42:27.942Z,13.34
2019-05-25T00:44:34.195Z,13.31
2019-05-25T00:46:40.552Z,13.30
2019-05-25T00:48:47.039Z,13.30
2019-05-25T00:50:53.389Z,13.31
2019-05-25T00:52:59.845Z,13.31
2019-05-25T00:55:08.970Z,13.32
2019-05-25T00:57:15.423Z,13.37
2019-05-25T00:59:22.011Z,13.43
2019-05-25T01:01:28.391Z,13.43
2019-05-25T01:03:34.725Z,13.43
2019-05-25T01:05:41.095Z,13.42
2019-05-25T01:07:47.458Z,13.41
2019-05-25T01:09:53.712Z,13.43
2019-05-25T01:12:00.215Z,13.43
2019-05-25T01:14:07.177Z,13.39
2019-05-25T01:16:13.526Z,13.34
2019-05-25T01:18:23.079Z,13.33
2019-05-25T01:20:29.980Z,13.34
2019-05-25T01:22:36.503Z,13.26
2019-05-25T01:24:44.716Z,13.24
2019-05-25T01:26:50.752Z,13.23
2019-05-25T01:28:57.758Z,13.27
2019-05-25T01:31:04.731Z,13.20
2019-05-25T01:33:10.964Z,13.20
2019-05-25T01:35:18.784Z,13.17
2019-05-25T01:37:25.018Z,13.12
2019-05-25T01:39:31.609Z,13.06
2019-05-25T01:41:37.843Z,13.02
2019-05-25T01:43:44.146Z,12.97
2019-05-25T01:45:52.109Z,12.93
2019-05-25T01:47:58.392Z,12.87
2019-05-25T01:50:06.379Z,12.82
2019-05-25T01:52:12.853Z,12.79
2019-05-25T01:54:19.102Z,12.73
2019-05-25T01:56:25.371Z,12.71
2019-05-25T01:58:31.635Z,12.73
2019-05-25T02:00:38.591Z,12.71
2019-05-25T02:02:44.965Z,12.67
2019-05-25T02:04:51.238Z,12.62
2019-05-25T02:06:57.695Z,12.69
2019-05-25T02:09:04.664Z,12.65
2019-05-25T02:11:11.341Z,12.66
2019-05-25T02:13:17.595Z,12.58
2019-05-25T02:15:24.080Z,12.55
2019-05-25T02:17:30.520Z,12.54
2019-05-25T02:19:37.103Z,12.50
2019-05-25T02:21:43.966Z,12.48
2019-05-25T02:23:50.428Z,12.52
2019-05-25T02:25:56.799Z,12.54
2019-05-25T02:28:03.057Z,12.51
2019-05-25T02:30:11.776Z,12.56
2019-05-25T02:32:19.775Z,12.55
2019-05-25T02:34:26.239Z,12.55
2019-05-25T02:36:32.928Z,12.56
2019-05-25T02:38:40.200Z,12.57
2019-05-25T02:40:46.570Z,12.58
2019-05-25T02:42:54.463Z,12.61
2019-05-25T02:45:00.839Z,12.61
2019-05-25T02:47:08.711Z,12.62
2019-05-25T02:49:17.505Z,12.65
2019-05-25T02:51:23.789Z,12.68
2019-05-25T02:53:30.773Z,12.70
2019-05-25T02:55:37.249Z,12.72
2019-05-25T02:57:43.604Z,12.74
2019-05-25T02:59:49.887Z,12.78
2019-05-25T03:01:56.333Z,12.82
2019-05-25T03:04:03.729Z,12.87
2019-05-25T03:06:11.946Z,12.92
2019-05-25T03:08:18.601Z,13.00
2019-05-25T03:10:24.948Z,13.08
2019-05-25T03:12:32.885Z,13.15
2019-05-25T03:14:39.613Z,13.22
2019-05-25T03:16:45.908Z,13.31
2019-05-25T03:18:52.265Z,13.37
2019-05-25T03:20:58.619Z,13.43
2019-05-25T03:23:04.879Z,13.52
2019-05-25T03:25:11.725Z,13.61
2019-05-25T03:27:18.118Z,13.65
2019-05-25T03:29:26.087Z,13.75
2019-05-25T03:31:32.387Z,13.74
2019-05-25T03:33:39.836Z,13.82
2019-05-25T03:35:48.105Z,13.99
2019-05-25T03:37:54.529Z,14.25
2019-05-25T03:40:00.793Z,14.86
2019-05-25T03:42:07.037Z,15.93
2019-05-25T03:44:13.426Z,16.96
2019-05-25T03:46:20.507Z,17.87
2019-05-25T03:48:26.735Z,18.27
2019-05-25T03:50:33.029Z,18.60
2019-05-25T03:52:39.559Z,19.11
2019-05-25T03:54:45.940Z,19.07
2019-05-25T03:56:52.403Z,18.93
2019-05-25T03:58:58.782Z,19.46
2019-05-25T04:01:05.249Z,19.54
2019-05-25T04:03:11.492Z,19.53
2019-05-25T04:05:17.765Z,19.58
2019-05-25T04:07:24.746Z,19.74
2019-05-25T04:09:31.084Z,20.09
2019-05-25T04:11:37.383Z,20.30
2019-05-25T04:13:43.821Z,20.52
2019-05-25T04:15:50.179Z,20.89
2019-05-25T04:17:56.635Z,21.15
2019-05-25T04:20:02.908Z,21.70
2019-05-25T04:22:09.274Z,21.85
2019-05-25T04:24:18.315Z,22.24
2019-05-25T04:26:27.447Z,22.32
2019-05-25T04:28:32.476Z,22.22
2019-05-25T04:30:38.822Z,21.99
2019-05-25T04:32:45.060Z,21.65
2019-05-25T04:34:55.557Z,21.83
2019-05-25T04:37:02.018Z,21.42
2019-05-25T04:39:09.421Z,21.20
2019-05-25T04:41:15.745Z,21.00
2019-05-25T04:43:22.128Z,21.21
2019-05-25T04:45:28.891Z,21.04
2019-05-25T04:47:35.296Z,21.38
2019-05-25T04:49:43.046Z,21.61
2019-05-25T04:51:49.314Z,21.82
2019-05-25T04:53:55.938Z,21.95
2019-05-25T04:56:03.147Z,22.14
2019-05-25T04:58:09.527Z,21.55
2019-05-25T05:00:16.509Z,21.01
2019-05-25T05:02:23.074Z,20.53
2019-05-25T05:04:29.433Z,20.04
2019-05-25T05:06:35.806Z,19.43
2019-05-25T05:08:42.178Z,19.04
2019-05-25T05:10:48.529Z,18.73
2019-05-25T05:12:56.164Z,18.76
2019-05-25T05:15:02.495Z,19.10
2019-05-25T05:17:08.859Z,19.69
2019-05-25T05:19:15.210Z,19.58
2019-05-25T05:21:21.659Z,19.27
2019-05-25T05:23:28.219Z,18.54
2019-05-25T05:25:34.596Z,18.38
2019-05-25T05:27:40.964Z,18.19
2019-05-25T05:29:47.322Z,18.00
2019-05-25T05:31:53.687Z,18.35
2019-05-25T05:34:00.760Z,18.35
2019-05-25T05:36:08.707Z,18.15
2019-05-25T05:38:16.357Z,18.32
2019-05-25T05:40:22.609Z,18.24
2019-05-25T05:42:31.446Z,17.96
2019-05-25T05:44:42.829Z,17.84
2019-05-25T05:46:50.387Z,17.64
2019-05-25T05:48:58.169Z,17.37
2019-05-25T05:51:06.117Z,17.37
2019-05-25T05:53:12.794Z,17.42
2019-05-25T05:55:23.536Z,17.56
2019-05-25T05:57:29.900Z,17.63
2019-05-25T05:59:36.256Z,17.77
2019-05-25T06:01:42.635Z,17.73
2019-05-25T06:03:48.981Z,17.68
2019-05-25T06:05:55.363Z,17.75
2019-05-25T06:08:01.708Z,17.70
2019-05-25T06:10:10.060Z,17.66
2019-05-25T06:12:16.381Z,17.62
2019-05-25T06:14:22.759Z,17.57
2019-05-25T06:16:29.170Z,17.54
2019-05-25T06:18:35.480Z,17.38
2019-05-25T06:20:41.736Z,17.52
2019-05-25T06:22:48.103Z,17.38
2019-05-25T06:24:54.562Z,17.44
2019-05-25T06:27:00.924Z,17.60
2019-05-25T06:29:07.284Z,17.57
2019-05-25T06:31:13.746Z,17.64
2019-05-25T06:33:19.994Z,17.81
2019-05-25T06:35:26.282Z,18.00
2019-05-25T06:37:32.833Z,17.92
2019-05-25T06:39:39.194Z,17.80
2019-05-25T06:41:47.013Z,17.81
2019-05-25T06:43:53.345Z,17.87
2019-05-25T06:45:59.739Z,17.87
2019-05-25T06:48:06.608Z,17.84
2019-05-25T06:50:14.906Z,17.97
2019-05-25T06:52:22.186Z,18.03
2019-05-25T06:54:28.655Z,18.13
2019-05-25T06:56:35.325Z,17.95
2019-05-25T06:58:42.192Z,18.15
2019-05-25T07:00:55.801Z,18.21
2019-05-25T07:03:02.085Z,18.09
2019-05-25T07:05:10.373Z,17.92
2019-05-25T07:07:16.653Z,17.95
2019-05-25T07:09:23.027Z,17.81
2019-05-25T07:11:29.591Z,17.83
2019-05-25T07:13:35.842Z,17.73
2019-05-25T07:15:42.208Z,17.69
2019-05-25T07:17:49.233Z,17.75
2019-05-25T07:19:55.676Z,17.84
2019-05-25T07:22:02.106Z,17.96
2019-05-25T07:24:08.479Z,18.15
2019-05-25T07:26:15.042Z,18.22
2019-05-25T07:28:21.522Z,18.27
2019-05-25T07:30:27.882Z,18.43
2019-05-25T07:32:34.259Z,18.61
2019-05-25T07:34:40.647Z,18.75
2019-05-25T07:36:48.083Z,18.76
2019-05-25T07:38:54.451Z,18.59
2019-05-25T07:41:00.713Z,18.53
2019-05-25T07:43:07.101Z,18.50
2019-05-25T07:45:15.189Z,18.54
2019-05-25T07:47:22.154Z,18.63
2019-05-25T07:49:28.418Z,18.64
2019-05-25T07:51:34.773Z,18.63
2019-05-25T07:53:41.042Z,18.81
2019-05-25T07:55:47.297Z,18.84
2019-05-25T07:57:53.790Z,18.62
2019-05-25T08:00:00.027Z,18.73
2019-05-25T08:02:06.394Z,19.03
2019-05-25T08:04:13.975Z,19.15
2019-05-25T08:06:20.359Z,19.06
2019-05-25T08:08:26.601Z,19.13
2019-05-25T08:10:32.878Z,19.23
2019-05-25T08:12:40.154Z,19.02
2019-05-25T08:14:47.115Z,18.97
2019-05-25T08:16:53.392Z,19.10
2019-05-25T08:18:59.643Z,19.16
2019-05-25T08:21:06.320Z,19.34
2019-05-25T08:23:12.689Z,19.42
2019-05-25T08:25:19.555Z,19.43
2019-05-25T08:27:25.812Z,19.52
2019-05-25T08:29:32.062Z,19.81
2019-05-25T08:31:38.441Z,19.81
2019-05-25T08:33:44.807Z,19.73
2019-05-25T08:38:03.074Z,20.00
2019-05-25T08:40:10.020Z,20.05
2019-05-25T08:42:18.242Z,20.17
2019-05-25T08:44:24.593Z,20.35
2019-05-25T08:46:31.368Z,20.34
2019-05-25T08:48:38.138Z,20.11
2019-05-25T08:50:44.417Z,19.69
2019-05-25T08:52:50.868Z,19.90
2019-05-25T08:54:58.261Z,19.66
2019-05-25T08:57:04.622Z,19.67
2019-05-25T08:59:10.993Z,19.40
2019-05-25T09:01:17.230Z,19.60
2019-05-25T09:03:23.596Z,19.71
2019-05-25T09:05:30.263Z,19.61
2019-05-25T09:07:36.532Z,19.76
2019-05-25T09:09:42.898Z,20.08
2019-05-25T09:11:49.275Z,20.17
2019-05-25T09:13:56.133Z,20.33
2019-05-25T09:16:03.000Z,20.34
2019-05-25T09:18:11.020Z,20.31
2019-05-25T09:20:38.168Z,20.18
2019-05-25T09:22:46.261Z,20.23
2019-05-25T09:24:52.539Z,20.01
2019-05-25T09:26:59.099Z,19.97
2019-05-25T09:29:05.574Z,20.20
2019-05-25T09:31:11.915Z,20.02
2019-05-25T09:33:19.421Z,20.07
2019-05-25T09:35:25.677Z,20.18
2019-05-25T09:37:32.548Z,20.23
2019-05-25T09:39:39.520Z,20.44
2019-05-25T09:41:45.777Z,20.28
2019-05-25T09:43:52.452Z,20.39
2019-05-25T09:45:58.802Z,20.30
2019-05-25T09:48:05.253Z,20.11
2019-05-25T09:50:13.718Z,20.16
2019-05-25T09:52:20.269Z,20.34
2019-05-25T09:54:26.648Z,20.28
2019-05-25T09:56:32.996Z,20.29
2019-05-25T09:58:39.572Z,20.18
2019-05-25T10:00:46.022Z,20.09
2019-05-25T10:02:52.448Z,20.13
2019-05-25T10:04:58.763Z,20.03
2019-05-25T10:07:05.218Z,20.10
2019-05-25T10:09:13.110Z,20.30
2019-05-25T10:11:19.351Z,20.44
2019-05-25T10:13:25.659Z,20.25
2019-05-25T10:15:31.997Z,19.98
2019-05-25T10:17:53.550Z,20.15
2019-05-25T10:20:00.293Z,20.16
2019-05-25T10:22:07.585Z,20.39
2019-05-25T10:24:13.937Z,20.67
2019-05-25T10:26:23.020Z,20.49
2019-05-25T10:28:28.194Z,20.39
2019-05-25T10:30:34.646Z,20.46
2019-05-25T10:32:42.550Z,20.46
2019-05-25T10:34:49.329Z,20.76
2019-05-25T10:36:57.139Z,20.82
2019-05-25T10:39:03.703Z,20.84
2019-05-25T10:41:10.246Z,20.90
2019-05-25T10:43:16.609Z,20.65
2019-05-25T10:45:23.271Z,20.82
2019-05-25T10:47:29.638Z,20.58
2019-05-25T10:49:36.243Z,20.58
2019-05-25T10:51:43.389Z,20.73
2019-05-25T10:53:49.769Z,20.90
2019-05-25T10:55:56.031Z,21.10
2019-05-25T10:58:02.296Z,21.09
2019-05-25T11:00:13.765Z,21.18
2019-05-25T11:02:20.061Z,21.37
2019-05-25T11:04:26.706Z,21.26
2019-05-25T11:06:34.950Z,21.26
2019-05-25T11:08:41.165Z,21.24
2019-05-25T11:10:47.414Z,20.93
2019-05-25T11:12:56.251Z,20.71
2019-05-25T11:15:02.746Z,20.71
2019-05-25T11:17:09.182Z,20.61
2019-05-25T11:19:15.575Z,20.28
2019-05-25T11:21:21.895Z,20.34
2019-05-25T11:23:28.176Z,20.39
2019-05-25T11:25:34.513Z,20.46
2019-05-25T11:27:41.086Z,20.67
2019-05-25T11:29:47.458Z,20.69
2019-05-25T11:32:00.752Z,20.78
2019-05-25T11:34:03.665Z,21.02
2019-05-25T11:36:10.140Z,21.15
2019-05-25T11:38:16.599Z,20.87
2019-05-25T11:40:26.625Z,20.99
2019-05-25T11:42:34.165Z,20.68
2019-05-25T11:44:40.462Z,20.57
2019-05-25T11:46:46.752Z,20.47
2019-05-25T11:48:53.010Z,20.62
2019-05-25T11:50:59.574Z,20.57
2019-05-25T11:53:06.279Z,20.34
2019-05-25T11:55:13.325Z,20.25
2019-05-25T11:57:23.393Z,20.39
2019-05-25T11:59:29.731Z,20.39
2019-05-25T12:01:36.090Z,20.48
2019-05-25T12:03:42.363Z,20.51
2019-05-25T12:05:48.615Z,20.58
2019-05-25T12:07:54.890Z,20.49
2019-05-25T12:10:01.336Z,20.56
2019-05-25T12:12:08.110Z,20.64
2019-05-25T12:14:14.487Z,20.27
2019-05-25T12:16:20.747Z,20.27
2019-05-25T12:18:27.309Z,20.42
2019-05-25T12:20:33.773Z,20.26
2019-05-25T12:22:40.541Z,20.29
2019-05-25T12:24:47.107Z,20.40
2019-05-25T12:26:53.488Z,20.29
2019-05-25T12:28:59.833Z,20.35
2019-05-25T12:31:06.406Z,20.31
2019-05-25T12:33:12.774Z,20.11
2019-05-25T12:35:20.818Z,20.23
2019-05-25T12:37:27.136Z,20.21
2019-05-25T12:39:33.993Z,20.24
2019-05-25T12:41:40.472Z,20.29
2019-05-25T12:43:46.935Z,20.25
2019-05-25T12:45:56.374Z,20.33
2019-05-25T12:48:03.036Z,20.28
2019-05-25T12:50:11.209Z,20.45
2019-05-25T12:52:17.515Z,20.66
2019-05-25T12:54:23.768Z,20.75
2019-05-25T12:56:30.243Z,20.64
2019-05-25T12:58:38.653Z,20.73
2019-05-25T13:00:55.666Z,20.53
2019-05-25T13:02:54.551Z,20.47
2019-05-25T13:05:00.831Z,20.59
2019-05-25T13:07:07.284Z,20.60
2019-05-25T13:09:15.264Z,20.35
2019-05-25T13:11:21.741Z,20.36
2019-05-25T13:13:27.987Z,20.34
2019-05-25T13:15:35.806Z,20.37
2019-05-25T13:17:42.156Z,20.31
2019-05-25T13:19:49.978Z,20.39
2019-05-25T13:21:56.423Z,20.55
2019-05-25T13:24:02.780Z,20.63
2019-05-25T13:26:10.896Z,20.71
2019-05-25T13:28:17.382Z,20.61
2019-05-25T13:30:24.142Z,20.37
2019-05-25T13:32:30.902Z,20.23
2019-05-25T13:34:37.410Z,20.18
2019-05-25T13:36:46.903Z,20.29
2019-05-25T13:38:53.181Z,20.19
2019-05-25T13:40:59.533Z,20.21
2019-05-25T13:43:07.005Z,20.28
2019-05-25T13:45:13.589Z,20.50
2019-05-25T13:47:19.961Z,20.45
2019-05-25T13:49:26.324Z,20.30
2019-05-25T13:51:32.657Z,20.43
2019-05-25T13:53:40.879Z,20.63
2019-05-25T13:55:47.113Z,20.69
2019-05-25T13:57:54.426Z,20.47
2019-05-25T14:00:01.005Z,20.48
2019-05-25T14:02:09.816Z,20.64
2019-05-25T14:04:16.264Z,20.55
2019-05-25T14:06:22.525Z,20.46
2019-05-25T14:08:29.913Z,20.47
2019-05-25T14:10:36.171Z,20.33
2019-05-25T14:12:42.422Z,20.38
2019-05-25T14:14:49.001Z,20.33
2019-05-25T14:16:55.673Z,20.39
2019-05-25T14:19:01.923Z,20.36
2019-05-25T14:21:08.184Z,20.51
2019-05-25T14:23:14.441Z,20.51
2019-05-25T14:25:21.232Z,20.49
2019-05-25T14:27:27.600Z,20.28
2019-05-25T14:29:33.848Z,20.20
2019-05-25T14:31:45.479Z,20.40
2019-05-25T14:33:48.028Z,20.46
2019-05-25T14:35:54.594Z,20.35
2019-05-25T14:38:01.442Z,20.30
2019-05-25T14:40:11.512Z,20.35
2019-05-25T14:42:18.065Z,20.39
2019-05-25T14:44:26.783Z,20.30
2019-05-25T14:46:33.036Z,20.28
2019-05-25T14:48:39.515Z,20.26
2019-05-25T14:50:45.865Z,20.20
2019-05-25T14:52:52.551Z,20.25
2019-05-25T14:54:58.895Z,20.23
2019-05-25T14:57:05.277Z,20.38
2019-05-25T14:59:11.539Z,20.28
2019-05-25T15:01:18.034Z,20.20
2019-05-25T15:03:24.460Z,20.31
2019-05-25T15:05:30.927Z,20.36
2019-05-25T15:07:37.286Z,20.65
2019-05-25T15:09:43.651Z,20.82
2019-05-25T15:11:53.540Z,20.74
2019-05-25T15:13:58.005Z,20.69
2019-05-25T15:16:06.137Z,20.53
2019-05-25T15:18:13.121Z,20.47
2019-05-25T15:20:20.281Z,20.57
2019-05-25T15:22:26.535Z,20.61
2019-05-25T15:24:33.102Z,20.36
2019-05-25T15:26:39.368Z,20.10
2019-05-25T15:28:47.187Z,19.82
2019-05-25T15:30:53.931Z,19.80
2019-05-25T15:33:00.298Z,20.03
2019-05-25T15:35:11.111Z,20.13
2019-05-25T15:37:17.440Z,20.14
2019-05-25T15:39:23.842Z,20.23
2019-05-25T15:41:30.883Z,20.17
2019-05-25T15:43:38.355Z,20.33
2019-05-25T15:45:46.066Z,20.20
2019-05-25T15:47:53.157Z,20.26
2019-05-25T15:49:59.447Z,20.47
2019-05-25T15:52:06.764Z,20.31
2019-05-25T15:54:14.569Z,20.14
2019-05-25T15:56:21.962Z,20.24
2019-05-25T15:58:28.341Z,20.44
2019-05-25T16:00:52.032Z,20.53
2019-05-25T16:02:59.378Z,20.43
2019-05-25T16:05:07.037Z,20.32
2019-05-25T16:07:15.960Z,19.89
2019-05-25T16:09:22.345Z,19.55
2019-05-25T16:11:31.968Z,19.33
2019-05-25T16:13:38.454Z,19.25
2019-05-25T16:15:44.928Z,19.53
2019-05-25T16:17:51.497Z,19.79
2019-05-25T16:19:58.055Z,20.06
2019-05-25T16:22:04.333Z,20.43
2019-05-25T16:24:10.685Z,20.41
2019-05-25T16:26:16.965Z,20.52
2019-05-25T16:28:24.299Z,20.51
2019-05-25T16:30:31.489Z,20.40
2019-05-25T16:33:10.149Z,20.59
2019-05-25T16:34:47.711Z,20.64
2019-05-25T16:36:54.364Z,20.57
2019-05-25T16:39:03.217Z,20.30
2019-05-25T16:41:09.473Z,20.32
2019-05-25T16:43:15.825Z,20.14
2019-05-25T16:45:22.608Z,19.55
2019-05-25T16:47:28.854Z,19.21
2019-05-25T16:49:37.196Z,19.13
2019-05-25T16:51:43.544Z,18.89
2019-05-25T16:53:49.923Z,18.61
2019-05-25T16:55:57.999Z,18.58
2019-05-25T16:58:04.877Z,18.42
2019-05-25T17:00:14.604Z,18.38
2019-05-25T17:02:23.335Z,18.19
2019-05-25T17:04:29.709Z,18.08
2019-05-25T17:06:38.513Z,18.04
2019-05-25T17:08:44.777Z,17.97
2019-05-25T17:10:52.783Z,17.90
2019-05-25T17:12:59.345Z,17.88
2019-05-25T17:15:07.755Z,17.91
2019-05-25T17:17:14.329Z,17.92
2019-05-25T17:19:20.694Z,17.90
2019-05-25T17:21:27.456Z,17.77
2019-05-25T17:23:33.720Z,17.63
2019-05-25T17:25:40.235Z,17.56
2019-05-25T17:27:47.774Z,17.54
2019-05-25T17:29:55.274Z,17.47
2019-05-25T17:32:01.515Z,17.40
2019-05-25T17:34:07.992Z,17.37
2019-05-25T17:36:14.263Z,17.37
2019-05-25T17:38:21.634Z,17.31
2019-05-25T17:40:27.897Z,17.28
2019-05-25T17:42:35.179Z,17.23
2019-05-25T17:44:41.432Z,17.17
2019-05-25T17:46:47.801Z,17.14
2019-05-25T17:48:54.484Z,17.11
2019-05-25T17:51:01.051Z,17.09
2019-05-25T17:53:07.406Z,16.99
2019-05-25T17:55:14.530Z,16.95
2019-05-25T17:57:21.052Z,16.93
2019-05-25T17:59:27.915Z,16.87
2019-05-25T18:01:34.191Z,16.71
2019-05-25T18:03:40.657Z,16.62
2019-05-25T18:05:48.124Z,16.56
2019-05-25T18:07:54.400Z,16.52
2019-05-25T18:10:00.888Z,16.41
2019-05-25T18:12:07.228Z,16.30
2019-05-25T18:14:13.597Z,16.26
2019-05-25T18:16:21.467Z,16.22
2019-05-25T18:18:27.867Z,16.16
2019-05-25T18:20:34.620Z,16.12
2019-05-25T18:22:41.108Z,16.07
2019-05-25T18:24:47.665Z,16.03
2019-05-25T18:26:54.010Z,15.97
2019-05-25T18:29:00.270Z,15.85
2019-05-25T18:31:07.100Z,15.78
2019-05-25T18:33:13.320Z,15.73
2019-05-25T18:35:19.697Z,15.66
2019-05-25T18:37:27.578Z,15.58
2019-05-25T18:39:35.163Z,15.54
2019-05-25T18:41:43.170Z,15.48
2019-05-25T18:43:49.638Z,15.42
2019-05-25T18:45:55.991Z,15.38
2019-05-25T18:48:04.493Z,15.34
2019-05-25T18:50:12.939Z,15.27
2019-05-25T18:52:19.381Z,15.21
2019-05-25T18:54:27.341Z,15.16
2019-05-25T18:56:33.966Z,15.11
2019-05-25T18:58:40.334Z,15.08
2019-05-25T19:00:46.882Z,15.05
2019-05-25T19:02:53.878Z,15.06
2019-05-25T19:05:01.676Z,15.06
2019-05-25T19:07:08.136Z,15.02
2019-05-25T19:09:14.600Z,14.99
2019-05-25T19:11:20.962Z,14.91
2019-05-25T19:13:27.312Z,14.85
2019-05-25T19:15:35.202Z,14.81
2019-05-25T19:17:46.792Z,14.74
2019-05-25T19:19:53.248Z,14.72
2019-05-25T19:22:00.741Z,14.67
2019-05-25T19:24:07.309Z,14.59
2019-05-25T19:26:14.693Z,14.54
2019-05-25T19:28:22.838Z,14.47
2019-05-25T19:30:30.282Z,14.41
2019-05-25T19:32:36.886Z,14.34
2019-05-25T19:34:58.636Z,14.32
2019-05-25T19:36:52.342Z,14.32
2019-05-25T19:38:58.824Z,14.30
2019-05-25T19:41:05.350Z,14.26
2019-05-25T19:43:11.747Z,14.23
2019-05-25T19:45:19.949Z,14.21
2019-05-25T19:47:26.204Z,14.19
2019-05-25T19:49:32.564Z,14.18
2019-05-25T19:51:38.846Z,14.18
2019-05-25T19:53:45.409Z,14.20
2019-05-25T19:55:51.989Z,14.20
2019-05-25T19:57:59.565Z,14.20
2019-05-25T20:00:10.676Z,14.24
2019-05-25T20:02:17.001Z,14.21
2019-05-25T20:04:23.364Z,14.14
2019-05-25T20:06:30.123Z,14.09
2019-05-25T20:08:37.414Z,14.07
2019-05-25T20:10:44.074Z,14.06
2019-05-25T20:12:50.447Z,14.03
2019-05-25T20:14:56.852Z,14.05
2019-05-25T20:17:03.787Z,14.00
2019-05-25T20:19:10.154Z,13.95
2019-05-25T20:21:16.810Z,13.92
2019-05-25T20:23:24.718Z,13.88
2019-05-25T20:25:31.077Z,13.84
2019-05-25T20:27:39.067Z,13.81
2019-05-25T20:29:45.361Z,13.76
2019-05-25T20:31:52.107Z,13.72
2019-05-25T20:33:58.488Z,13.69
2019-05-25T20:36:05.660Z,13.65
2019-05-25T20:38:12.683Z,13.58
2019-05-25T20:40:19.307Z,13.51
2019-05-25T20:42:25.570Z,13.46
2019-05-25T20:44:32.055Z,13.42
2019-05-25T20:46:38.387Z,13.36
2019-05-25T20:48:45.168Z,13.36
2019-05-25T20:50:52.966Z,13.32
2019-05-25T20:53:00.949Z,13.27
2019-05-25T20:55:08.836Z,13.33
2019-05-25T20:57:15.531Z,13.23
2019-05-25T20:59:22.104Z,13.17
2019-05-25T21:01:28.462Z,13.12
2019-05-25T21:03:35.142Z,13.09
2019-05-25T21:05:50.226Z,13.28
2019-05-25T21:07:49.489Z,13.16
2019-05-25T21:09:59.135Z,13.07
2019-05-25T21:12:08.487Z,13.16
2019-05-25T21:14:14.927Z,13.08
2019-05-25T21:16:22.957Z,13.02
2019-05-25T21:18:29.522Z,12.95
2019-05-25T21:20:36.273Z,12.94
2019-05-25T21:22:42.647Z,12.92
2019-05-25T21:24:49.109Z,12.84
2019-05-25T21:26:55.475Z,12.78
2019-05-25T21:29:02.125Z,12.80
2019-05-25T21:31:08.375Z,12.76
2019-05-25T21:33:14.854Z,12.68
2019-05-25T21:35:21.334Z,12.71
2019-05-25T21:37:28.330Z,12.63
2019-05-25T21:39:34.734Z,12.61
2019-05-25T21:41:41.149Z,12.57
2019-05-25T21:43:47.611Z,12.58
2019-05-25T21:45:55.394Z,12.62
2019-05-25T21:48:01.966Z,12.67
2019-05-25T21:50:09.791Z,12.68
2019-05-25T21:52:16.332Z,12.69
2019-05-25T21:54:22.692Z,12.70
2019-05-25T21:56:29.142Z,12.70
2019-05-25T21:58:37.467Z,12.70
2019-05-25T22:00:44.341Z,12.70
2019-05-25T22:02:50.800Z,12.71
2019-05-25T22:04:57.061Z,12.76
2019-05-25T22:07:03.726Z,12.80
2019-05-25T22:09:12.028Z,12.84
2019-05-25T22:11:18.294Z,12.86
2019-05-25T22:13:28.723Z,12.82
2019-05-25T22:15:32.664Z,12.78
2019-05-25T22:17:39.486Z,12.77
2019-05-25T22:19:45.885Z,12.73
2019-05-25T22:21:53.287Z,12.68
2019-05-25T22:23:59.744Z,12.63
2019-05-25T22:26:06.134Z,12.59
2019-05-25T22:28:14.020Z,12.57
2019-05-25T22:30:22.590Z,12.52
2019-05-25T22:32:29.078Z,12.63
2019-05-25T22:34:35.345Z,12.72
2019-05-25T22:36:41.704Z,12.99
2019-05-25T22:38:48.285Z,12.85
2019-05-25T22:40:54.858Z,12.72
2019-05-25T22:43:01.332Z,12.59
2019-05-25T22:45:12.439Z,12.44
2019-05-25T22:47:19.048Z,12.30
2019-05-25T22:49:25.630Z,12.23
2019-05-25T22:51:32.083Z,12.14
2019-05-25T22:53:38.552Z,11.99
2019-05-25T22:55:44.839Z,11.83
2019-05-25T22:57:51.205Z,11.73
2019-05-25T22:59:57.636Z,11.65
2019-05-25T23:02:03.899Z,11.55
2019-05-25T23:04:10.159Z,11.47
2019-05-25T23:06:16.619Z,11.50
2019-05-25T23:08:23.614Z,11.56
2019-05-25T23:10:29.964Z,11.48
2019-05-25T23:12:36.340Z,11.39
2019-05-25T23:14:43.771Z,11.28
2019-05-25T23:16:50.069Z,11.19
2019-05-25T23:18:56.751Z,11.10
2019-05-25T23:21:03.017Z,11.07
2019-05-25T23:23:09.365Z,11.03
2019-05-25T23:25:15.831Z,11.01
2019-05-25T23:27:22.397Z,10.97
2019-05-25T23:29:28.974Z,11.03
2019-05-25T23:31:35.438Z,11.11
2019-05-25T23:33:41.996Z,11.09
2019-05-25T23:35:48.265Z,10.96
2019-05-25T23:37:54.535Z,11.14
2019-05-25T23:40:01.785Z,11.17
2019-05-25T23:42:08.295Z,11.13
2019-05-25T23:44:14.944Z,11.11
2019-05-25T23:46:22.433Z,11.13
2019-05-25T23:48:28.905Z,11.14
2019-05-25T23:50:35.563Z,11.03
2019-05-25T23:52:41.926Z,11.03
2019-05-25T23:54:48.402Z,11.23
2019-05-25T23:56:54.760Z,11.17
2019-05-25T23:59:02.049Z,11.26
